Gunnison, CO (81230)

11:30 PM MST on December 03, 2016 (GMT -0700)
West Ruby Ave Weather | | Change Station

Elev 7713 ft 38.55 °N, 106.93 °W | Updated 11 seconds ago

Clear
Clear
9.4 °F
Feels Like 9 °F
N
0.0
Wind Variable Wind from North
Gusts 0.0 mph

Today
High -- | Low -- °F
--% Chance of Precip.
Yesterday
High -- | Low -- °F
Precip. -- in
Pressure 30.38 in
Visibility 10.0 miles
Clouds Clear
Windchill 9 °F
Dew Point -1 °F
Humidity 61%
Rainfall in
Snow Depth Not available.
7:08 AM 4:46 PM
Waxing Crescent, 20% visible
METAR KGUC 040556Z AUTO 00000KT 10SM CLR M13/M16 A3017 RMK AO2 SLP287 T11281156 11022 21133 400001133 51012 FZRANO
Pressure 30.38 in
Visibility 10.0 miles
Clouds Clear
Windchill 9 °F
Dew Point -1 °F
Humidity 61%
Rainfall in
Snow Depth Not available.
7:08 AM 4:46 PM
Waxing Crescent, 20% visible
METAR KGUC 040556Z AUTO 00000KT 10SM CLR M13/M16 A3017 RMK AO2 SLP287 T11281156 11022 21133 400001133 51012 FZRANO

10-Day Weather Forecast

Almanac

Astronomy

Dec. 03, 2016 Rise Set
Actual Time
Civil Twilight
Nautical Twilight
Astronomical Twilight
Moon
Length of Visible Light
Length of Day
Tomorrow will be .
, % of the Moon is Illuminated

Today's Extremes

State Highs State Lows

Community

WunderPhotos

Upload Photos

1,955,588 photos uploaded!

WunderBlog® & News

Nearby

Air Quality

  Air Quality AQ Index Pollutant
Not available.

Snow Depth

Station Depth Elevation

Earthquake Activity

City Distance Mag. Time & Date
Minimum magnitude displayed is 2.5.

Coastal Water Temperatures

Place Temperature

Stations

Nearby Weather Stations

Station Location Temp. Windchill Dew Point Humidity Wind Precip. Elev Updated Type
                   

Watches & Warnings

There are currently no watches in effect.